Time;durP1;ratioP1;P1;durP2;ratioP2;P2;SDS_P1;SDS_P2;PMS_P1;PMS_P2;Temp;Humidity;BMP_temperature;BMP_pressure;BME280_temperature;BME280_humidity;BME280_pressure;Samples;Min_cycle;Max_cycle;Signal;HPM_P1;HPM_P2
2024/01/05 00:01:35;;;;;;;2.97;0.93;;;;;;;5.11;100.00;147473.38;4980226;28;20732;-57
2024/01/05 00:04:01;;;;;;;6.07;1.10;;;;;;;5.10;100.00;147469.63;4977009;28;20225;-59
2024/01/05 00:06:29;;;;;;;4.37;0.80;;;;;;;5.11;100.00;147473.38;4980314;28;20228;-59
2024/01/05 00:08:56;;;;;;;4.77;1.20;;;;;;;5.16;100.00;147485.78;4976992;28;20229;-58
2024/01/05 00:11:23;;;;;;;3.03;1.10;;;;;;;5.25;100.00;147505.66;4979435;28;20240;-58
2024/01/05 00:13:49;;;;;;;6.50;0.70;;;;;;;5.27;100.00;147510.63;4980384;28;20673;-59
2024/01/05 00:16:20;;;;;;;2.13;0.70;;;;;;;5.32;100.00;147524.25;4981974;28;20229;-58
2024/01/05 00:18:48;;;;;;;7.17;0.97;;;;;;;5.42;100.00;147546.59;4978835;28;20240;-59
2024/01/05 00:21:21;;;;;;;4.90;0.90;;;;;;;5.39;100.00;147539.13;4992514;28;20225;-59
2024/01/05 00:23:48;;;;;;;3.10;0.87;;;;;;;5.42;100.00;147546.59;4979249;28;20224;-58
2024/01/05 00:26:15;;;;;;;2.73;0.70;;;;;;;5.33;100.00;147525.47;4977668;28;20248;-58
2024/01/05 00:28:42;;;;;;;3.47;0.70;;;;;;;5.28;100.00;147513.09;4980890;28;20228;-58
2024/01/05 00:31:12;;;;;;;1.47;0.70;;;;;;;5.32;100.00;147522.97;4973459;28;20632;-58
2024/01/05 00:33:39;;;;;;;3.00;0.80;;;;;;;5.26;100.00;147508.13;4972102;28;20217;-56
2024/01/05 00:36:08;;;;;;;4.40;0.70;;;;;;;5.41;100.00;147544.09;4981225;28;20225;-57
2024/01/05 00:38:36;;;;;;;3.87;0.70;;;;;;;5.47;100.00;147559.00;4983264;28;20236;-57
2024/01/05 00:41:03;;;;;;;4.53;0.90;;;;;;;5.53;100.00;147572.63;4976831;28;20299;-57
2024/01/05 00:43:29;;;;;;;3.67;0.87;;;;;;;5.56;100.00;147580.06;4979193;28;20241;-58
2024/01/05 00:45:56;;;;;;;3.77;0.73;;;;;;;5.54;100.00;147576.38;4975422;28;20229;-58
2024/01/05 00:48:23;;;;;;;3.33;0.63;;;;;;;5.62;100.00;147594.97;4981940;28;20209;-57
2024/01/05 00:50:50;;;;;;;6.77;0.80;;;;;;;5.65;100.00;147601.19;4977549;28;20221;-58
2024/01/05 00:53:18;;;;;;;4.63;0.87;;;;;;;5.79;100.00;147635.97;4982082;28;20229;-56
2024/01/05 00:55:45;;;;;;;4.13;0.80;;;;;;;5.76;100.00;147629.72;4977997;28;20217;-56
2024/01/05 00:58:15;;;;;;;5.20;1.00;;;;;;;5.72;100.00;147618.56;4977759;28;20232;-59
2024/01/05 01:00:41;;;;;;;4.83;0.70;;;;;;;5.66;100.00;147604.91;4978755;28;20221;-59
2024/01/05 01:03:08;;;;;;;4.57;0.80;;;;;;;5.74;100.00;147623.53;4978492;28;22184;-58
2024/01/05 01:05:35;;;;;;;6.73;0.70;;;;;;;6.14;94.12;147720.38;4980279;28;20221;-58
2024/01/05 01:08:01;;;;;;;5.87;1.13;;;;;;;6.14;96.05;147720.38;4978358;28;20225;-65
2024/01/05 01:10:29;;;;;;;4.27;0.80;;;;;;;6.05;97.90;147699.31;4980858;28;20225;-58
2024/01/05 01:12:56;;;;;;;3.83;1.10;;;;;;;6.00;97.97;147686.88;4975940;28;20229;-58
2024/01/05 01:15:22;;;;;;;8.20;1.00;;;;;;;6.05;95.94;147699.31;4980275;28;20229;-59
2024/01/05 01:17:49;;;;;;;3.73;0.80;;;;;;;6.00;98.44;147685.56;4982632;28;20227;-59
2024/01/05 01:20:16;;;;;;;5.73;1.17;;;;;;;5.96;99.21;147676.91;4979640;28;20240;-59
2024/01/05 01:22:43;;;;;;;2.47;0.83;;;;;;;5.84;99.75;147648.31;4981338;28;20265;-59
2024/01/05 01:25:09;;;;;;;4.33;1.17;;;;;;;5.83;98.81;147645.84;4974340;28;20712;-59
2024/01/05 01:27:37;;;;;;;3.90;0.93;;;;;;;5.75;99.24;147627.25;4977289;28;20222;-59
2024/01/05 01:30:05;;;;;;;9.70;0.97;;;;;;;5.70;99.69;147613.59;4977097;28;20229;-59
2024/01/05 01:32:32;;;;;;;3.27;1.27;;;;;;;5.65;100.00;147602.41;4979953;28;20240;-59
2024/01/05 01:34:58;;;;;;;4.43;1.00;;;;;;;5.63;100.00;147596.22;4977527;28;20719;-59
2024/01/05 01:37:25;;;;;;;4.13;1.03;;;;;;;5.58;100.00;147586.31;4981857;28;20215;-59
2024/01/05 01:39:52;;;;;;;3.97;0.80;;;;;;;5.58;100.00;147585.03;4976593;28;20232;-58
2024/01/05 01:42:18;;;;;;;4.53;1.13;;;;;;;5.81;98.12;147639.66;4978618;28;20716;-58
2024/01/05 01:44:46;;;;;;;4.60;1.00;;;;;;;5.75;100.00;147626.03;4978399;28;20217;-58
2024/01/05 01:47:13;;;;;;;6.63;1.57;;;;;;;5.70;99.82;147614.84;4976134;28;20740;-58
2024/01/05 01:49:40;;;;;;;4.37;1.00;;;;;;;5.68;99.67;147609.88;4976751;28;20226;-58
2024/01/05 01:52:07;;;;;;;4.83;0.83;;;;;;;5.79;96.35;147634.69;4974789;28;20229;-57
2024/01/05 01:54:35;;;;;;;2.60;0.80;;;;;;;6.32;86.48;147762.63;4976590;28;20225;-58
2024/01/05 01:57:03;;;;;;;4.13;1.40;;;;;;;6.50;88.60;147806.06;4976382;28;20252;-59
2024/01/05 01:59:30;;;;;;;6.77;1.20;;;;;;;6.58;88.78;147824.72;4975436;28;20240;-58
2024/01/05 02:01:58;;;;;;;6.87;0.90;;;;;;;6.92;82.45;147907.94;4974431;28;20229;-58
2024/01/05 02:04:26;;;;;;;2.93;1.10;;;;;;;7.30;77.64;147998.63;4978771;28;20233;-60
2024/01/05 02:06:53;;;;;;;5.33;0.50;;;;;;;7.45;75.01;148034.63;4975904;28;20224;-58
2024/01/05 02:09:20;;;;;;;1.90;0.70;;;;;;;7.72;72.81;148098.06;4978098;28;20225;-59
2024/01/05 02:11:47;;;;;;;4.33;1.33;;;;;;;7.59;76.97;148068.22;4989934;28;20233;-58
2024/01/05 02:14:13;;;;;;;6.90;0.80;;;;;;;7.54;75.73;148057.00;4972664;28;20717;-59
2024/01/05 02:16:41;;;;;;;4.03;1.00;;;;;;;7.79;75.39;148116.69;4977892;28;20220;-59
2024/01/05 02:19:09;;;;;;;2.90;0.80;;;;;;;8.01;71.17;148167.63;4975046;28;20228;-59
2024/01/05 02:21:40;;;;;;;3.20;0.70;;;;;;;8.10;72.05;148191.28;4977242;28;20229;-59
2024/01/05 02:24:08;;;;;;;4.67;0.80;;;;;;;8.15;73.37;148202.47;4979745;28;20221;-59
2024/01/05 02:26:35;;;;;;;3.07;0.70;;;;;;;8.21;71.09;148216.16;4981801;28;20241;-58
2024/01/05 02:29:03;;;;;;;2.93;1.40;;;;;;;8.42;68.39;148268.41;4981136;28;20589;-58
2024/01/05 02:31:29;;;;;;;2.97;0.73;;;;;;;8.29;70.89;148236.06;4983468;28;20934;-59
2024/01/05 02:33:56;;;;;;;3.20;0.90;;;;;;;8.20;72.23;148213.66;4976827;28;20218;-59
2024/01/05 02:36:22;;;;;;;5.87;1.07;;;;;;;8.13;72.02;148197.47;4981462;28;20241;-58
2024/01/05 02:38:49;;;;;;;1.97;0.50;;;;;;;8.28;70.39;148233.56;4977537;28;20214;-59
2024/01/05 02:41:17;;;;;;;3.80;0.90;;;;;;;8.27;70.81;148231.09;4978324;28;20237;-59
2024/01/05 02:43:44;;;;;;;4.50;0.70;;;;;;;8.33;69.70;148244.75;4980382;28;20248;-58
2024/01/05 02:46:10;;;;;;;4.57;0.80;;;;;;;8.48;67.72;148282.06;4979082;28;20235;-59
2024/01/05 02:48:37;;;;;;;3.63;0.80;;;;;;;8.62;67.21;148314.44;4981612;28;20219;-58
2024/01/05 02:51:04;;;;;;;4.07;0.70;;;;;;;8.62;68.40;148314.44;4978051;28;20228;-57
2024/01/05 02:53:30;;;;;;;3.50;0.80;;;;;;;8.67;66.80;148326.88;4981467;28;20229;-59
2024/01/05 02:55:57;;;;;;;2.57;0.70;;;;;;;8.77;66.90;148351.75;4978325;28;20231;-59
2024/01/05 02:58:25;;;;;;;2.97;1.00;;;;;;;8.75;66.24;148345.50;4978990;28;20243;-59
2024/01/05 03:00:51;;;;;;;2.73;1.10;;;;;;;8.64;67.52;148320.63;4977542;28;20229;-58
2024/01/05 03:03:18;;;;;;;5.83;1.03;;;;;;;8.53;68.50;148294.53;4978838;28;20232;-57
2024/01/05 03:05:45;;;;;;;3.77;0.87;;;;;;;8.62;65.22;148315.66;4980945;28;20722;-57
2024/01/05 03:08:12;;;;;;;3.73;0.90;;;;;;;8.54;67.26;148295.75;4980204;28;20361;-59
2024/01/05 03:10:38;;;;;;;4.60;1.03;;;;;;;8.51;67.87;148289.56;4980338;28;20228;-57
2024/01/05 03:13:05;;;;;;;2.50;0.60;;;;;;;8.70;64.84;148335.56;4978038;28;20220;-57
2024/01/05 03:15:33;;;;;;;3.03;0.70;;;;;;;8.55;67.77;148299.50;4979232;28;20718;-57
2024/01/05 03:17:59;;;;;;;2.47;1.20;;;;;;;8.53;67.38;148293.28;4979002;28;20232;-57
2024/01/05 03:20:26;;;;;;;2.90;0.60;;;;;;;8.41;68.36;148265.91;4983596;28;20236;-56
2024/01/05 03:22:52;;;;;;;4.60;1.03;;;;;;;8.37;67.51;148254.69;4979551;28;20244;-55
2024/01/05 03:25:19;;;;;;;2.83;0.90;;;;;;;8.32;67.36;148243.53;4979240;28;20234;-58
2024/01/05 03:27:46;;;;;;;3.30;1.43;;;;;;;8.28;69.82;148234.78;4978904;28;20227;-56
2024/01/05 03:30:12;;;;;;;4.20;1.10;;;;;;;8.03;72.62;148172.59;4991785;28;20242;-56
2024/01/05 03:32:40;;;;;;;5.53;1.50;;;;;;;7.72;76.48;148099.28;4987913;28;20233;-57
2024/01/05 03:35:08;;;;;;;7.43;1.40;;;;;;;7.54;79.89;148055.78;4977220;28;20595;-57
2024/01/05 03:37:34;;;;;;;6.77;1.30;;;;;;;7.30;79.38;147997.41;4977609;28;20226;-55
2024/01/05 03:40:01;;;;;;;3.53;1.60;;;;;;;7.08;82.29;147946.44;4978170;28;20209;-55
2024/01/05 03:42:27;;;;;;;4.60;1.50;;;;;;;6.96;84.32;147915.38;4976707;28;20287;-54
2024/01/05 03:44:54;;;;;;;4.47;1.47;;;;;;;6.89;84.01;147899.25;4976081;28;20700;-56
2024/01/05 03:47:20;;;;;;;4.40;1.37;;;;;;;6.86;83.82;147891.81;4983501;28;20316;-54
2024/01/05 03:49:48;;;;;;;4.20;0.67;;;;;;;7.03;80.83;147932.78;4978953;28;20736;-57
2024/01/05 03:52:15;;;;;;;6.40;1.23;;;;;;;7.08;83.32;147946.44;4978651;28;20710;-59
2024/01/05 03:54:42;;;;;;;2.90;0.70;;;;;;;7.45;77.68;148034.63;4981208;28;20233;-59
2024/01/05 03:57:11;;;;;;;3.03;1.00;;;;;;;7.74;75.43;148103.03;4978435;28;20234;-59
2024/01/05 03:59:38;;;;;;;5.23;1.03;;;;;;;7.94;74.83;148151.50;4978739;28;20225;-57
2024/01/05 04:04:46;;;;;;;5.87;0.80;;;;;;;8.22;72.02;148219.88;5243302;23;20238;-57
2024/01/05 04:07:14;;;;;;;2.97;0.80;;;;;;;8.18;72.12;148208.69;4955322;28;20242;-57
2024/01/05 04:09:41;;;;;;;5.47;0.80;;;;;;;8.23;72.17;148221.13;4958290;28;20215;-56
2024/01/05 04:12:11;;;;;;;2.93;0.60;;;;;;;8.25;71.88;148227.34;4957404;28;20585;-57
2024/01/05 04:14:39;;;;;;;2.80;0.80;;;;;;;8.32;72.34;148242.25;4960045;28;20228;-58
2024/01/05 04:17:06;;;;;;;2.83;0.77;;;;;;;8.31;72.59;148241.03;4958416;28;20222;-57
2024/01/05 04:19:32;;;;;;;5.30;0.97;;;;;;;8.26;72.93;148228.59;4960587;28;20235;-57
2024/01/05 04:21:59;;;;;;;6.00;0.70;;;;;;;8.25;73.37;148226.09;4958800;28;20241;-57
2024/01/05 04:24:27;;;;;;;4.10;1.00;;;;;;;8.35;71.54;148249.72;4959152;28;20237;-58
2024/01/05 04:26:53;;;;;;;3.97;0.80;;;;;;;8.37;72.52;148254.69;4959500;28;20238;-57
2024/01/05 04:29:20;;;;;;;4.33;0.87;;;;;;;8.38;71.62;148258.44;4962474;28;20245;-57
2024/01/05 04:31:47;;;;;;;6.30;0.90;;;;;;;8.40;71.95;148262.16;5196635;23;20746;-57
2024/01/05 04:34:13;;;;;;;3.70;0.80;;;;;;;8.49;71.76;148283.31;5002902;28;20232;-57
2024/01/05 04:36:40;;;;;;;5.13;1.23;;;;;;;8.47;72.14;148278.34;5024621;28;21152;-57
2024/01/05 04:39:06;;;;;;;6.87;1.27;;;;;;;8.45;71.97;148274.59;5021502;28;20316;-57
2024/01/05 04:41:34;;;;;;;5.03;0.90;;;;;;;8.43;72.74;148269.63;5025234;28;20236;-57
2024/01/05 04:44:01;;;;;;;4.60;0.83;;;;;;;8.45;71.58;148273.38;5022062;28;20221;-58
2024/01/05 04:46:28;;;;;;;1.47;0.77;;;;;;;8.57;73.37;148304.50;5023047;28;20224;-57
2024/01/05 04:48:54;;;;;;;6.73;1.33;;;;;;;8.36;73.79;148253.47;5021959;28;20237;-58
2024/01/05 04:51:21;;;;;;;4.07;1.30;;;;;;;8.21;74.06;148216.16;5024888;28;20235;-58
2024/01/05 04:53:49;;;;;;;4.20;1.13;;;;;;;8.06;75.64;148181.34;5024306;28;20307;-57
2024/01/05 04:56:16;;;;;;;3.50;1.13;;;;;;;7.73;79.48;148101.75;5022554;28;20680;-58
2024/01/05 04:58:44;;;;;;;4.60;1.20;;;;;;;7.56;78.58;148060.78;5024935;28;20224;-58
2024/01/05 05:01:10;;;;;;;4.10;1.07;;;;;;;7.49;79.74;148044.59;5022172;28;20322;-57
2024/01/05 05:03:37;;;;;;;4.50;1.00;;;;;;;7.36;81.44;148012.31;5024576;28;20240;-57
2024/01/05 05:06:04;;;;;;;3.83;0.97;;;;;;;7.56;79.15;148060.78;5021086;28;20259;-58
2024/01/05 05:08:30;;;;;;;5.30;1.00;;;;;;;7.64;79.47;148079.38;5024111;28;20445;-57
2024/01/05 05:10:57;;;;;;;3.63;1.13;;;;;;;7.95;76.95;148155.19;5020634;28;20231;-57
2024/01/05 05:13:24;;;;;;;3.07;1.37;;;;;;;7.76;77.74;148109.22;5021964;28;20587;-58
2024/01/05 05:15:52;;;;;;;3.20;1.10;;;;;;;7.74;77.68;148104.25;5019319;28;20224;-57
2024/01/05 05:18:18;;;;;;;2.43;1.00;;;;;;;7.76;77.40;148108.00;5023121;28;20227;-57
2024/01/05 05:20:45;;;;;;;5.80;1.60;;;;;;;7.71;79.83;148096.78;5023800;28;20238;-56
2024/01/05 05:23:12;;;;;;;3.20;1.07;;;;;;;7.63;80.78;148076.91;5021136;28;20347;-57
2024/01/05 05:25:38;;;;;;;3.47;1.40;;;;;;;7.63;79.84;148076.91;5024505;28;20243;-57
2024/01/05 05:28:05;;;;;;;2.80;1.10;;;;;;;7.39;82.89;148021.00;5021143;28;20695;-57
2024/01/05 05:30:33;;;;;;;4.13;1.80;;;;;;;7.32;83.02;148002.38;5023225;28;20251;-57
2024/01/05 05:33:01;;;;;;;7.80;2.67;;;;;;;7.22;84.50;147978.75;5021281;28;20239;-57
2024/01/05 05:35:27;;;;;;;6.67;1.60;;;;;;;7.16;85.26;147963.81;5023644;28;20334;-57
2024/01/05 05:37:55;;;;;;;3.00;1.70;;;;;;;7.05;85.65;147938.97;5005035;28;20232;-57
2024/01/05 05:40:22;;;;;;;6.23;1.70;;;;;;;7.05;86.31;147938.97;5023911;28;20231;-56
2024/01/05 05:42:48;;;;;;;6.57;1.77;;;;;;;7.30;84.57;147998.63;5023271;28;20235;-57
2024/01/05 05:45:15;;;;;;;6.73;1.87;;;;;;;7.09;87.33;147948.91;5019894;28;20586;-58
2024/01/05 05:47:42;;;;;;;5.60;1.60;;;;;;;6.88;88.33;147898.00;4986266;28;20274;-57
2024/01/05 05:50:13;;;;;;;5.53;2.07;;;;;;;6.96;87.43;147915.38;5019348;28;20246;-58
2024/01/05 05:52:39;;;;;;;4.47;1.77;;;;;;;7.12;85.20;147953.88;5023564;28;20235;-57
2024/01/05 05:55:11;;;;;;;7.70;2.47;;;;;;;7.03;86.90;147932.78;5020680;28;20231;-57
2024/01/05 05:57:37;;;;;;;7.37;2.73;;;;;;;7.00;87.41;147925.31;5025409;28;20456;-57
2024/01/05 06:00:05;;;;;;;7.00;2.80;;;;;;;7.12;86.23;147955.16;5000627;28;20228;-58
2024/01/05 06:02:32;;;;;;;5.57;2.27;;;;;;;6.92;86.59;147907.94;5024524;28;20237;-57
2024/01/05 06:04:59;;;;;;;4.73;1.83;;;;;;;6.72;89.60;147858.22;5024724;28;20716;-58
2024/01/05 06:07:27;;;;;;;8.93;2.77;;;;;;;6.54;89.43;147814.78;5027261;28;20231;-56
2024/01/05 06:09:53;;;;;;;4.50;1.97;;;;;;;6.40;91.44;147781.22;5022393;28;20583;-57
2024/01/05 06:12:20;;;;;;;5.20;2.10;;;;;;;6.31;92.97;147761.41;5026842;28;20239;-58
2024/01/05 06:14:47;;;;;;;4.60;1.93;;;;;;;6.28;92.90;147753.94;5027007;28;20232;-57
2024/01/05 06:17:14;;;;;;;4.67;2.10;;;;;;;6.15;94.54;147722.88;5023470;28;20756;-57
2024/01/05 06:19:40;;;;;;;5.67;2.10;;;;;;;6.18;95.13;147729.09;5027194;28;20236;-57
2024/01/05 06:22:10;;;;;;;3.20;1.63;;;;;;;6.13;95.19;147717.91;5023326;28;20240;-57
2024/01/05 06:24:38;;;;;;;14.40;5.30;;;;;;;6.15;95.72;147721.66;5009396;28;20230;-57
2024/01/05 06:27:05;;;;;;;6.27;2.77;;;;;;;6.17;96.20;147727.84;5024111;28;20313;-57
2024/01/05 06:29:31;;;;;;;8.03;2.27;;;;;;;6.53;91.84;147812.28;5026930;28;20223;-57
2024/01/05 06:31:59;;;;;;;6.23;2.37;;;;;;;6.56;92.98;147819.75;5022437;28;20305;-57
2024/01/05 06:34:26;;;;;;;6.10;2.70;;;;;;;6.44;93.41;147791.16;5027663;28;20232;-57
2024/01/05 06:36:52;;;;;;;5.33;2.33;;;;;;;6.33;93.68;147766.38;5024199;28;20234;-57
2024/01/05 06:39:19;;;;;;;5.53;2.33;;;;;;;6.32;94.23;147763.88;5027476;28;20274;-57
2024/01/05 06:41:47;;;;;;;9.80;3.50;;;;;;;6.28;94.80;147753.94;5027210;28;20236;-57
2024/01/05 06:44:14;;;;;;;6.13;3.37;;;;;;;6.29;94.94;147755.16;5024735;28;20239;-57
2024/01/05 06:46:40;;;;;;;5.50;2.90;;;;;;;6.25;95.70;147746.50;5026836;28;20235;-57
2024/01/05 06:49:07;;;;;;;4.67;2.40;;;;;;;6.25;95.57;147745.22;5024036;28;20220;-56
2024/01/05 06:51:37;;;;;;;4.73;1.70;;;;;;;6.26;95.68;147747.72;5026817;28;20228;-57
2024/01/05 06:54:04;;;;;;;3.93;1.80;;;;;;;6.25;96.34;147746.50;5006071;28;20226;-58
2024/01/05 06:56:32;;;;;;;4.80;2.03;;;;;;;6.29;95.97;147755.16;5026700;28;20227;-58
2024/01/05 06:59:00;;;;;;;3.20;1.40;;;;;;;6.28;96.71;147753.94;5023626;28;20924;-57
2024/01/05 07:01:27;;;;;;;4.10;1.50;;;;;;;6.36;95.32;147772.56;5027035;28;20243;-56
2024/01/05 07:03:54;;;;;;;4.57;1.80;;;;;;;6.29;96.32;147756.44;5005873;28;20227;-54
2024/01/05 07:06:20;;;;;;;5.83;1.80;;;;;;;6.22;95.56;147737.78;5027013;28;20231;-56
2024/01/05 07:08:47;;;;;;;7.47;2.93;;;;;;;6.18;97.21;147729.09;5024235;28;20232;-56
2024/01/05 07:11:20;;;;;;;5.60;1.80;;;;;;;6.17;100.00;147726.63;5023091;28;20224;-56
2024/01/05 07:13:47;;;;;;;7.70;2.10;;;;;;;6.14;100.00;147719.16;5025184;28;20326;-54
2024/01/05 07:16:17;;;;;;;6.83;2.20;;;;;;;6.18;99.67;147729.09;5023761;28;20223;-55
2024/01/05 07:18:43;;;;;;;5.80;2.00;;;;;;;6.14;100.00;147720.38;5025281;28;20243;-56
2024/01/05 07:21:10;;;;;;;5.73;2.00;;;;;;;6.16;100.00;147724.13;5022301;28;20247;-56
2024/01/05 07:23:37;;;;;;;10.70;2.27;;;;;;;6.17;100.00;147726.63;5026090;28;20231;-56
2024/01/05 07:26:03;;;;;;;6.33;2.47;;;;;;;6.33;100.00;147765.09;5021983;28;20215;-56
2024/01/05 07:28:30;;;;;;;4.33;1.47;;;;;;;6.42;100.00;147787.44;5023789;28;20239;-55
2024/01/05 07:30:56;;;;;;;11.40;3.87;;;;;;;6.42;100.00;147787.44;5022551;28;20227;-55
2024/01/05 07:33:24;;;;;;;6.13;2.30;;;;;;;6.50;100.00;147806.06;5024736;28;20235;-56
2024/01/05 07:35:51;;;;;;;9.40;2.40;;;;;;;6.67;100.00;147845.81;5022924;28;20232;-56
2024/01/05 07:38:18;;;;;;;9.27;1.90;;;;;;;6.71;100.00;147855.75;5025839;28;20239;-56
2024/01/05 07:40:44;;;;;;;4.93;2.17;;;;;;;6.68;100.00;147848.28;5026257;28;20271;-55
2024/01/05 07:43:12;;;;;;;9.53;2.00;;;;;;;6.69;100.00;147852.03;5005815;28;20274;-54
2024/01/05 07:45:39;;;;;;;19.93;11.60;;;;;;;6.79;100.00;147876.91;5025182;28;20753;-57
2024/01/05 07:48:06;;;;;;;13.07;5.00;;;;;;;6.86;100.00;147893.03;5022316;28;20235;-56
2024/01/05 07:50:34;;;;;;;11.40;6.73;;;;;;;6.92;100.00;147907.94;5025147;28;20212;-56
2024/01/05 07:53:01;;;;;;;6.97;4.23;;;;;;;6.99;100.00;147924.06;5022407;28;20239;-56
2024/01/05 07:55:28;;;;;;;12.63;3.50;;;;;;;7.05;100.00;147937.75;5026023;28;20246;-56
2024/01/05 07:57:55;;;;;;;6.60;3.27;;;;;;;7.12;100.00;147953.88;5022233;28;20243;-54
2024/01/05 08:00:23;;;;;;;11.37;2.90;;;;;;;7.24;100.00;147983.72;5025329;28;20575;-56
2024/01/05 08:02:50;;;;;;;6.10;2.13;;;;;;;7.28;100.00;147993.66;5005903;28;20329;-56
2024/01/05 08:05:16;;;;;;;6.17;2.30;;;;;;;7.30;100.00;147997.41;5024903;28;20306;-55
2024/01/05 08:07:45;;;;;;;6.50;3.47;;;;;;;7.38;100.00;148018.50;5025236;28;20239;-55
2024/01/05 08:10:12;;;;;;;8.13;2.40;;;;;;;7.50;96.84;148047.06;5021014;28;20224;-56
2024/01/05 08:12:39;;;;;;;15.13;8.60;;;;;;;7.58;97.02;148064.47;5023788;28;20349;-56
2024/01/05 08:15:06;;;;;;;13.53;6.47;;;;;;;7.63;98.59;148076.91;5019989;28;20217;-56
2024/01/05 08:17:33;;;;;;;8.53;1.87;;;;;;;7.83;92.35;148125.41;5022295;28;20231;-56
2024/01/05 08:20:00;;;;;;;5.43;2.53;;;;;;;7.82;93.72;148122.94;5002767;28;20232;-54
2024/01/05 08:22:26;;;;;;;20.20;10.47;;;;;;;7.86;93.18;148132.88;5024077;28;20318;-56
2024/01/05 08:24:54;;;;;;;6.80;2.30;;;;;;;7.93;92.69;148149.00;5021486;28;20230;-54
2024/01/05 08:27:21;;;;;;;9.10;4.50;;;;;;;7.93;94.21;148150.28;5025007;28;20236;-56
2024/01/05 08:29:47;;;;;;;7.90;2.30;;;;;;;7.93;91.97;148150.28;5025095;28;20221;-56
2024/01/05 08:32:14;;;;;;;6.13;2.40;;;;;;;7.92;92.38;148147.78;5022677;28;20239;-58
2024/01/05 08:34:41;;;;;;;3.87;1.50;;;;;;;8.01;90.60;148168.91;5023877;28;20227;-57
2024/01/05 08:37:10;;;;;;;4.93;1.80;;;;;;;8.06;89.34;148180.06;5021735;28;20239;-57
2024/01/05 08:39:39;;;;;;;7.90;2.27;;;;;;;7.99;89.93;148163.94;5024643;28;20231;-57
2024/01/05 08:42:07;;;;;;;5.83;1.93;;;;;;;8.04;89.45;148175.09;5018465;28;20239;-57
2024/01/05 08:44:35;;;;;;;8.77;1.60;;;;;;;8.06;87.89;148181.34;5023356;28;20219;-56
2024/01/05 08:47:02;;;;;;;4.50;1.63;;;;;;;8.09;89.55;148188.81;5021297;28;20220;-58
2024/01/05 08:49:29;;;;;;;3.63;1.60;;;;;;;8.11;87.50;148193.78;5022016;28;20227;-58
2024/01/05 08:51:55;;;;;;;5.33;1.70;;;;;;;8.06;91.48;148181.34;5018176;28;20458;-58
2024/01/05 08:54:22;;;;;;;6.10;2.60;;;;;;;8.07;91.01;148183.81;5021899;28;20711;-58
2024/01/05 08:56:49;;;;;;;5.63;1.83;;;;;;;8.08;90.89;148185.03;5023355;28;20327;-56
2024/01/05 08:59:17;;;;;;;6.23;1.60;;;;;;;8.17;91.87;148206.22;5021856;28;20231;-57
2024/01/05 09:01:44;;;;;;;6.83;2.20;;;;;;;8.24;89.46;148223.63;5021392;28;20243;-55
2024/01/05 09:04:10;;;;;;;5.07;1.70;;;;;;;8.32;86.99;148242.25;5020148;28;20359;-55
2024/01/05 09:06:38;;;;;;;9.63;3.90;;;;;;;8.34;89.38;148247.22;5007211;28;20714;-57
2024/01/05 09:09:05;;;;;;;6.07;2.33;;;;;;;8.28;89.70;148234.78;5015434;28;20224;-56
2024/01/05 09:11:31;;;;;;;5.60;2.53;;;;;;;8.27;90.85;148232.31;5022067;28;20224;-58
2024/01/05 09:13:58;;;;;;;6.72;1.95;;;;;;;8.37;87.44;148255.97;5018081;28;20449;-57
2024/01/05 09:16:26;;;;;;;4.97;1.60;;;;;;;8.39;88.06;148260.94;5021606;28;20231;-56
2024/01/05 09:18:52;;;;;;;27.40;16.33;;;;;;;8.39;91.41;148260.94;5020126;28;20235;-57
2024/01/05 09:21:19;;;;;;;7.27;2.40;;;;;;;8.50;87.18;148285.81;5022726;28;20683;-57
2024/01/05 09:23:46;;;;;;;7.47;3.30;;;;;;;8.41;90.51;148264.63;5019594;28;20240;-56
2024/01/05 09:26:15;;;;;;;4.37;2.20;;;;;;;8.50;89.12;148285.81;5016806;28;20236;-56
2024/01/05 09:28:42;;;;;;;5.70;2.87;;;;;;;8.48;89.86;148280.84;5021916;28;20233;-57
2024/01/05 09:31:09;;;;;;;5.70;1.87;;;;;;;8.47;90.46;148278.34;5020176;28;20268;-56
2024/01/05 09:33:37;;;;;;;3.77;1.20;;;;;;;8.42;90.39;148267.13;5021163;28;20231;-56
2024/01/05 09:36:05;;;;;;;6.50;1.40;;;;;;;8.40;91.12;148262.16;5020665;28;20230;-55
2024/01/05 09:38:31;;;;;;;5.40;2.33;;;;;;;8.37;90.90;148255.97;5004875;28;20233;-56
2024/01/05 09:40:58;;;;;;;12.40;3.73;;;;;;;8.37;90.38;148255.97;5020755;28;20244;-56
2024/01/05 09:43:25;;;;;;;8.43;5.33;;;;;;;8.48;88.51;148280.84;5021685;28;20232;-55
2024/01/05 09:45:53;;;;;;;6.33;2.97;;;;;;;8.45;89.48;148274.59;5018160;28;20271;-56
2024/01/05 09:48:20;;;;;;;5.80;1.67;;;;;;;8.46;89.86;148277.06;5017840;28;20584;-57
2024/01/05 09:50:52;;;;;;;7.13;1.73;;;;;;;8.47;89.10;148279.56;5021074;28;20228;-56
2024/01/05 09:53:19;;;;;;;6.87;2.23;;;;;;;8.48;88.77;148282.06;5018025;28;20234;-57
2024/01/05 09:55:48;;;;;;;12.37;4.10;;;;;;;8.39;88.98;148260.94;5002947;28;20240;-56
2024/01/05 09:58:14;;;;;;;10.83;4.80;;;;;;;8.39;89.91;148259.66;5020336;28;20235;-56
2024/01/05 10:00:45;;;;;;;4.97;2.30;;;;;;;8.44;90.67;148270.88;5016666;28;20221;-57
2024/01/05 10:03:19;;;;;;;4.57;1.80;;;;;;;8.45;88.72;148274.59;5014347;28;20314;-57
2024/01/05 10:05:46;;;;;;;10.40;1.73;;;;;;;8.41;89.20;148264.63;5018008;28;20235;-57
2024/01/05 10:08:14;;;;;;;14.40;5.97;;;;;;;8.44;90.32;148270.88;5020618;28;20239;-56
2024/01/05 10:10:48;;;;;;;7.37;2.07;;;;;;;8.47;87.45;148279.56;5022301;28;20592;-56
2024/01/05 10:13:15;;;;;;;4.43;1.77;;;;;;;8.44;88.19;148272.09;5017033;28;20433;-56
2024/01/05 10:15:55;;;;;;;6.80;1.90;;;;;;;8.53;88.43;148293.28;5023415;28;20236;-57
2024/01/05 10:18:23;;;;;;;5.97;1.87;;;;;;;8.51;88.54;148288.28;5020635;28;20229;-55
2024/01/05 10:20:50;;;;;;;6.90;2.40;;;;;;;8.53;88.66;148293.28;5019215;28;20221;-57
2024/01/05 10:23:18;;;;;;;5.63;1.67;;;;;;;8.48;87.68;148282.06;5022716;28;20267;-56
2024/01/05 10:25:47;;;;;;;4.53;1.70;;;;;;;8.55;88.41;148298.25;5023741;28;20240;-57
2024/01/05 10:28:30;;;;;;;4.63;1.87;;;;;;;8.62;88.67;148314.44;5020301;28;20322;-57
2024/01/05 10:31:11;;;;;;;3.13;1.33;;;;;;;8.73;87.51;148341.81;5019976;28;20248;-57
2024/01/05 10:33:48;;;;;;;8.37;4.30;;;;;;;8.77;88.39;148351.75;5022977;28;20229;-56
2024/01/05 10:36:19;;;;;;;6.53;3.13;;;;;;;8.88;88.18;148377.88;5015464;28;20619;-57
2024/01/05 10:38:47;;;;;;;7.30;2.20;;;;;;;8.84;89.27;148367.91;5023811;28;20572;-57
2024/01/05 10:41:15;;;;;;;7.23;1.90;;;;;;;8.86;88.39;148374.16;5020909;28;20682;-56
2024/01/05 10:43:42;;;;;;;7.20;1.77;;;;;;;8.98;87.57;148401.53;5023408;28;20240;-57
2024/01/05 10:46:11;;;;;;;3.37;1.60;;;;;;;8.90;86.77;148381.63;5021289;28;21753;-54
2024/01/05 10:48:39;;;;;;;4.97;1.87;;;;;;;9.05;88.21;148417.69;5026037;28;20240;-56
2024/01/05 10:51:07;;;;;;;4.60;1.50;;;;;;;9.08;85.72;148426.38;5006571;28;20247;-56
2024/01/05 10:53:34;;;;;;;5.47;2.00;;;;;;;9.20;87.05;148455.00;5024480;28;20263;-56
2024/01/05 10:56:03;;;;;;;8.00;1.97;;;;;;;9.08;88.72;148426.38;5020475;28;20584;-54
2024/01/05 10:58:30;;;;;;;6.83;2.40;;;;;;;9.15;87.73;148442.56;5020449;28;20589;-56
2024/01/05 11:01:00;;;;;;;6.37;3.10;;;;;;;9.21;86.64;148456.22;5022454;28;20236;-54
2024/01/05 11:03:35;;;;;;;6.30;1.40;;;;;;;9.34;85.98;148487.38;5023881;28;20228;-56
2024/01/05 11:06:08;;;;;;;6.73;2.20;;;;;;;9.30;86.16;148479.91;5004808;28;20248;-55
2024/01/05 11:08:43;;;;;;;6.77;1.80;;;;;;;9.35;86.73;148491.06;5025496;28;20236;-54
2024/01/05 11:11:25;;;;;;;5.07;1.30;;;;;;;9.39;85.71;148501.03;5023561;28;20241;-56
2024/01/05 11:14:20;;;;;;;2.87;1.57;;;;;;;9.47;84.22;148519.72;5022335;28;20217;-56
2024/01/05 11:17:07;;;;;;;4.63;1.50;;;;;;;9.33;84.78;148486.09;5025667;28;20286;-56
2024/01/05 11:20:12;;;;;;;6.07;1.43;;;;;;;9.48;84.45;148522.22;5017089;28;20227;-57
2024/01/05 11:22:41;;;;;;;5.07;1.20;;;;;;;9.52;84.74;148532.19;4981885;28;20248;-57
2024/01/05 11:25:08;;;;;;;12.80;4.77;;;;;;;9.60;83.60;148552.03;5023340;28;20229;-56
2024/01/05 11:27:37;;;;;;;4.67;1.53;;;;;;;9.57;83.92;148544.56;5026499;28;20241;-55
2024/01/05 11:30:04;;;;;;;4.97;1.47;;;;;;;9.58;81.78;148545.84;5023634;28;20225;-57
2024/01/05 11:32:42;;;;;;;5.33;1.83;;;;;;;9.47;83.87;148519.72;5023172;28;20232;-56
2024/01/05 11:35:43;;;;;;;6.33;2.90;;;;;;;9.62;81.83;148554.53;5022102;28;20244;-55
2024/01/05 11:38:30;;;;;;;4.00;1.33;;;;;;;9.72;80.26;148579.44;5020181;28;21723;-57